createdAt,value
2019-01-28T00:00:57.737Z,98571.32
2019-01-28T00:03:26.803Z,98575.42
2019-01-28T00:05:54.148Z,98584.54
2019-01-28T00:08:21.957Z,98581.66
2019-01-28T00:10:51.314Z,98583.48
2019-01-28T00:13:19.073Z,98580.38
2019-01-28T00:15:49.505Z,98587.80
2019-01-28T00:18:18.415Z,98587.33
2019-01-28T00:20:45.747Z,98592.16
2019-01-28T00:23:12.959Z,98594.55
2019-01-28T00:25:40.022Z,98597.84
2019-01-28T00:28:07.342Z,98601.36
2019-01-28T00:30:34.752Z,98601.77
2019-01-28T00:33:01.845Z,98600.19
2019-01-28T00:35:31.811Z,98600.94
2019-01-28T00:37:59.200Z,98602.72
2019-01-28T00:40:27.606Z,98600.69
2019-01-28T00:42:54.991Z,98598.77
2019-01-28T00:45:22.094Z,98600.14
2019-01-28T00:47:49.183Z,98603.77
2019-01-28T00:50:17.853Z,98596.81
2019-01-28T00:52:44.950Z,98602.72
2019-01-28T00:55:12.126Z,98610.42
2019-01-28T00:57:39.186Z,98602.54
2019-01-28T01:00:10.154Z,98611.05
2019-01-28T01:02:37.622Z,98614.51
2019-01-28T01:05:04.889Z,98614.98
2019-01-28T01:07:34.012Z,98614.51
2019-01-28T01:10:01.067Z,98613.69
2019-01-28T01:12:28.242Z,98618.14
2019-01-28T01:14:55.383Z,98615.66
2019-01-28T01:17:24.660Z,98613.80
2019-01-28T01:19:52.697Z,98621.46
2019-01-28T01:22:21.994Z,98621.52
2019-01-28T01:24:49.555Z,98625.34
2019-01-28T01:27:16.736Z,98629.27
2019-01-28T01:29:44.003Z,98631.39
2019-01-28T01:32:11.321Z,98633.16
2019-01-28T01:34:39.381Z,98633.73
2019-01-28T01:37:07.149Z,98627.17
2019-01-28T01:39:34.498Z,98635.94
2019-01-28T01:42:02.169Z,98641.53
2019-01-28T01:44:29.825Z,98640.38
2019-01-28T01:46:57.284Z,98638.19
2019-01-28T01:49:25.381Z,98643.02
2019-01-28T01:51:53.547Z,98649.19
2019-01-28T01:54:21.699Z,98646.85
2019-01-28T01:56:50.799Z,98642.98
2019-01-28T01:59:18.979Z,98644.42
2019-01-28T02:01:47.083Z,98638.28
2019-01-28T02:04:14.251Z,98647.06
2019-01-28T02:06:42.548Z,98640.16
2019-01-28T02:09:09.614Z,98644.42
2019-01-28T02:11:36.878Z,98643.08
2019-01-28T02:14:04.058Z,98640.30
2019-01-28T02:16:31.136Z,98641.45
2019-01-28T02:18:58.207Z,98648.83
2019-01-28T02:21:26.443Z,98647.34
2019-01-28T02:23:53.534Z,98654.35
2019-01-28T02:26:20.592Z,98655.26
2019-01-28T02:28:47.674Z,98661.95
2019-01-28T02:31:14.725Z,98664.94
2019-01-28T02:33:42.474Z,98650.16
2019-01-28T02:36:10.767Z,98655.53
2019-01-28T02:38:37.831Z,98662.84
2019-01-28T02:41:04.912Z,98658.41
2019-01-28T02:43:33.473Z,98660.66
2019-01-28T02:46:00.523Z,98665.20
2019-01-28T02:48:28.036Z,98663.03
2019-01-28T02:50:55.439Z,98660.85
2019-01-28T02:53:22.510Z,98663.83
2019-01-28T02:55:49.594Z,98658.05
2019-01-28T02:58:19.231Z,98664.73
2019-01-28T03:00:46.823Z,98661.59
2019-01-28T03:03:15.993Z,98665.03
2019-01-28T03:05:43.418Z,98664.41
2019-01-28T03:08:11.477Z,98658.34
2019-01-28T03:10:38.541Z,98667.13
2019-01-28T03:13:06.095Z,98670.94
2019-01-28T03:15:33.917Z,98675.86
2019-01-28T03:18:01.378Z,98668.48
2019-01-28T03:20:29.550Z,98671.20
2019-01-28T03:22:57.212Z,98672.94
2019-01-28T03:25:24.977Z,98680.50
2019-01-28T03:27:52.580Z,98681.25
2019-01-28T03:30:20.573Z,98680.56
2019-01-28T03:32:47.926Z,98680.27
2019-01-28T03:35:15.625Z,98679.60
2019-01-28T03:37:42.785Z,98676.19
2019-01-28T03:40:12.716Z,98683.02
2019-01-28T03:42:40.346Z,98683.48
2019-01-28T03:45:10.140Z,98683.55
2019-01-28T03:47:37.815Z,98682.05
2019-01-28T03:50:05.688Z,98683.41
2019-01-28T03:52:33.142Z,98693.06
2019-01-28T03:55:00.909Z,98682.34
2019-01-28T03:57:28.202Z,98678.41
2019-01-28T03:59:57.073Z,98681.47
2019-01-28T04:02:24.343Z,98680.23
2019-01-28T04:04:51.413Z,98685.16
2019-01-28T04:07:18.450Z,98681.32
2019-01-28T04:09:45.489Z,98684.78
2019-01-28T04:12:12.897Z,98687.11
2019-01-28T04:14:41.378Z,98689.63
2019-01-28T04:17:09.457Z,98691.06
2019-01-28T04:19:37.310Z,98692.36
2019-01-28T04:22:04.668Z,98697.62
2019-01-28T04:24:32.327Z,98690.16
2019-01-28T04:27:00.193Z,98683.25
2019-01-28T04:29:27.868Z,98681.33
2019-01-28T04:31:55.311Z,98687.09
2019-01-28T04:34:22.691Z,98682.23
2019-01-28T04:36:49.742Z,98684.02
2019-01-28T04:39:17.481Z,98682.11
2019-01-28T04:41:44.835Z,98683.30
2019-01-28T04:44:12.189Z,98692.07
2019-01-28T04:46:40.154Z,98691.32
2019-01-28T04:49:07.214Z,98686.75
2019-01-28T04:51:34.556Z,98695.70
2019-01-28T04:54:02.327Z,98700.53
2019-01-28T04:56:29.981Z,98695.09
2019-01-28T04:58:58.410Z,98696.44
2019-01-28T05:01:26.430Z,98701.48
2019-01-28T05:03:53.532Z,98707.88
2019-01-28T05:06:20.836Z,98703.40
2019-01-28T05:08:48.186Z,98703.87
2019-01-28T05:11:15.232Z,98706.66
2019-01-28T05:13:42.590Z,98699.55
2019-01-28T05:16:10.053Z,98707.19
2019-01-28T05:18:37.405Z,98702.56
2019-01-28T05:21:05.064Z,98705.45
2019-01-28T05:23:32.737Z,98704.89
2019-01-28T05:26:00.184Z,98701.45
2019-01-28T05:28:28.163Z,98706.45
2019-01-28T05:30:55.914Z,98708.42
2019-01-28T05:33:22.966Z,98706.87
2019-01-28T05:35:50.842Z,98704.52
2019-01-28T05:38:20.058Z,98709.06
2019-01-28T05:40:47.797Z,98703.53
2019-01-28T05:43:14.866Z,98705.92
2019-01-28T05:45:44.151Z,98709.41
2019-01-28T05:48:11.211Z,98707.27
2019-01-28T05:50:38.314Z,98698.74
2019-01-28T05:53:05.403Z,98705.27
2019-01-28T05:55:32.465Z,98700.17
2019-01-28T05:57:59.922Z,98707.36
2019-01-28T06:00:35.201Z,98710.25
2019-01-28T06:03:02.294Z,98713.84
2019-01-28T06:05:29.444Z,98710.25
2019-01-28T06:07:58.102Z,98717.09
2019-01-28T06:10:25.151Z,98716.14
2019-01-28T06:12:52.216Z,98721.23
2019-01-28T06:15:19.490Z,98719.07
2019-01-28T06:17:48.711Z,98722.62
2019-01-28T06:20:18.029Z,98729.20
2019-01-28T06:22:46.404Z,98725.20
2019-01-28T06:25:13.447Z,98731.88
2019-01-28T06:27:40.493Z,98734.61
2019-01-28T06:30:11.980Z,98735.85
2019-01-28T06:32:40.051Z,98732.36
2019-01-28T06:35:07.261Z,98734.33
2019-01-28T06:37:37.270Z,98739.02
2019-01-28T06:40:06.608Z,98743.28
2019-01-28T06:42:33.858Z,98735.09
2019-01-28T06:45:02.916Z,98742.38
2019-01-28T06:47:29.994Z,98743.77
2019-01-28T06:49:58.868Z,98750.09
2019-01-28T06:52:25.971Z,98753.36
2019-01-28T06:54:53.039Z,98754.95
2019-01-28T06:57:20.105Z,98763.77
2019-01-28T06:59:49.091Z,98759.36
2019-01-28T07:02:16.162Z,98760.38
2019-01-28T07:04:44.350Z,98767.56
2019-01-28T07:07:11.468Z,98767.84
2019-01-28T07:09:40.003Z,98767.14
2019-01-28T07:12:07.105Z,98769.63
2019-01-28T07:14:35.678Z,98775.41
2019-01-28T07:17:04.543Z,98773.69
2019-01-28T07:19:31.614Z,98780.11
2019-01-28T07:21:58.697Z,98777.05
2019-01-28T07:24:25.767Z,98782.75
2019-01-28T07:26:54.663Z,98785.48
2019-01-28T07:29:22.107Z,98787.75
2019-01-28T07:31:49.459Z,98792.09
2019-01-28T07:34:17.864Z,98796.28
2019-01-28T07:36:45.724Z,98795.36
2019-01-28T07:39:14.789Z,98796.15
2019-01-28T07:41:42.903Z,98799.84
2019-01-28T07:44:09.962Z,98808.69
2019-01-28T07:46:37.534Z,98805.27
2019-01-28T07:49:04.585Z,98815.64
2019-01-28T07:51:31.663Z,98816.27
2019-01-28T07:53:58.718Z,98819.23
2019-01-28T07:56:27.591Z,98820.30
2019-01-28T07:58:55.664Z,98818.85
2019-01-28T08:01:23.150Z,98820.64
2019-01-28T08:03:50.898Z,98820.91
2019-01-28T08:06:18.675Z,98823.64
2019-01-28T08:08:46.118Z,98836.38
2019-01-28T08:11:13.745Z,98841.75
2019-01-28T08:13:41.134Z,98832.77
2019-01-28T08:16:08.338Z,98841.17
2019-01-28T08:18:36.668Z,98835.70
2019-01-28T08:21:05.553Z,98840.13
2019-01-28T08:23:32.621Z,98838.36
2019-01-28T08:25:59.678Z,98838.52
2019-01-28T08:28:26.845Z,98838.43
2019-01-28T08:30:54.989Z,98843.50
2019-01-28T08:33:22.163Z,98838.03
2019-01-28T08:35:49.196Z,98846.77
2019-01-28T08:38:17.457Z,98846.82
2019-01-28T08:40:44.609Z,98851.20
2019-01-28T08:43:11.774Z,98855.69
2019-01-28T08:45:38.927Z,98857.48
2019-01-28T08:48:07.270Z,98862.08
2019-01-28T08:50:34.654Z,98864.27
2019-01-28T08:53:02.318Z,98868.49
2019-01-28T08:55:29.469Z,98873.09
2019-01-28T08:57:57.610Z,98872.80
2019-01-28T09:00:28.165Z,98881.58
2019-01-28T09:02:55.233Z,98874.85
2019-01-28T09:05:22.588Z,98878.86
2019-01-28T09:07:50.106Z,98878.59
2019-01-28T09:10:18.258Z,98880.59
2019-01-28T09:12:47.247Z,98879.92
2019-01-28T09:15:16.252Z,98881.30
2019-01-28T09:17:43.326Z,98884.44
2019-01-28T09:20:13.330Z,98883.20
2019-01-28T09:22:40.890Z,98884.44
2019-01-28T09:25:09.914Z,98893.78
2019-01-28T09:27:37.541Z,98894.24
2019-01-28T09:30:06.633Z,98895.07
2019-01-28T09:32:36.181Z,98898.23
2019-01-28T09:35:04.089Z,98901.63
2019-01-28T09:37:31.138Z,98900.81
2019-01-28T09:39:58.593Z,98913.66
2019-01-28T09:42:25.649Z,98908.50
2019-01-28T09:44:52.738Z,98906.14
2019-01-28T09:47:21.633Z,98914.05
2019-01-28T09:49:49.885Z,98916.25
2019-01-28T09:52:17.128Z,98919.80
2019-01-28T09:54:44.453Z,98921.44
2019-01-28T09:57:11.495Z,98921.20
2019-01-28T09:59:38.620Z,98922.17
2019-01-28T10:02:07.774Z,98928.28
2019-01-28T10:04:35.167Z,98932.45
2019-01-28T10:07:02.232Z,98936.67
2019-01-28T10:09:29.319Z,98933.50
2019-01-28T10:11:56.484Z,98937.75
2019-01-28T10:14:23.671Z,98938.36
2019-01-28T10:16:50.738Z,98939.10
2019-01-28T10:19:17.831Z,98941.17
2019-01-28T10:21:48.957Z,98939.48
2019-01-28T10:24:16.447Z,98944.85
2019-01-28T10:26:43.875Z,98952.72
2019-01-28T10:29:11.227Z,98952.09
2019-01-28T10:31:39.518Z,98947.14
2019-01-28T10:34:07.778Z,98955.00
2019-01-28T10:36:35.340Z,98956.80
2019-01-28T10:39:05.046Z,98962.15
2019-01-28T10:41:34.655Z,98954.33
2019-01-28T10:44:01.819Z,98957.65
2019-01-28T10:46:29.364Z,98962.55
2019-01-28T10:48:56.645Z,98958.17
2019-01-28T10:51:24.027Z,98967.30
2019-01-28T10:53:51.238Z,98963.06
2019-01-28T10:56:19.647Z,98963.77
2019-01-28T10:58:46.940Z,98967.16
2019-01-28T11:01:15.855Z,98963.41
2019-01-28T11:03:43.034Z,98964.24
2019-01-28T11:06:10.110Z,98966.00
2019-01-28T11:08:37.578Z,98966.14
2019-01-28T11:11:06.481Z,98973.43
2019-01-28T11:13:34.421Z,98965.86
2019-01-28T11:16:02.029Z,98963.63
2019-01-28T11:18:31.357Z,98961.77
2019-01-28T11:20:59.028Z,98962.62
2019-01-28T11:23:26.700Z,98971.49
2019-01-28T11:25:53.838Z,98969.78
2019-01-28T11:28:23.925Z,98974.69
2019-01-28T11:30:57.856Z,98970.19
2019-01-28T11:33:25.389Z,98970.30
2019-01-28T11:35:52.706Z,98976.33
2019-01-28T11:38:22.082Z,98975.50
2019-01-28T11:40:49.150Z,98976.14
2019-01-28T11:43:16.270Z,98977.27
2019-01-28T11:45:53.049Z,98977.20
2019-01-28T11:48:20.332Z,98984.78
2019-01-28T11:50:55.673Z,98986.92
2019-01-28T11:53:16.787Z,98991.97
2019-01-28T11:55:43.847Z,98986.44
2019-01-28T11:58:11.332Z,98994.08
2019-01-28T12:01:07.732Z,98991.88
2019-01-28T12:03:34.957Z,98995.57
2019-01-28T12:06:03.898Z,98996.44
2019-01-28T12:08:31.099Z,98996.08
2019-01-28T12:10:58.209Z,98998.80
2019-01-28T12:13:26.482Z,98993.27
2019-01-28T12:15:53.677Z,99004.33
2019-01-28T12:18:20.730Z,98997.35
2019-01-28T12:20:53.504Z,98999.88
2019-01-28T12:23:21.359Z,99009.27
2019-01-28T12:25:48.753Z,99006.38
2019-01-28T12:28:15.894Z,99011.95
2019-01-28T12:30:44.782Z,99011.14
2019-01-28T12:33:11.836Z,99016.82
2019-01-28T12:35:38.902Z,99010.69
2019-01-28T12:38:05.981Z,99018.02
2019-01-28T12:40:33.045Z,99016.86
2019-01-28T12:43:01.901Z,99019.15
2019-01-28T12:45:29.282Z,99018.78
2019-01-28T12:47:57.241Z,99023.20
2019-01-28T12:50:26.314Z,99024.38
2019-01-28T12:52:53.742Z,99027.02
2019-01-28T12:55:20.796Z,99032.08
2019-01-28T12:57:47.854Z,99032.70
2019-01-28T13:00:17.878Z,99035.20
2019-01-28T13:02:45.609Z,99033.02
2019-01-28T13:05:16.220Z,99034.86
2019-01-28T13:07:44.116Z,99045.19
2019-01-28T13:10:13.508Z,99039.62
2019-01-28T13:12:40.567Z,99041.83
2019-01-28T13:15:12.390Z,99044.12
2019-01-28T13:17:39.921Z,99051.20
2019-01-28T13:20:07.782Z,99054.89
2019-01-28T13:22:35.493Z,99054.94
2019-01-28T13:25:03.427Z,99061.80
2019-01-28T13:27:32.185Z,99064.05
2019-01-28T13:30:00.799Z,99069.39
2019-01-28T13:32:28.228Z,99071.89
2019-01-28T13:34:57.418Z,99069.89
2019-01-28T13:37:29.094Z,99070.57
2019-01-28T13:39:58.273Z,99067.95
2019-01-28T13:42:25.934Z,99074.72
2019-01-28T13:44:55.438Z,99076.50
2019-01-28T13:47:23.205Z,99083.13
2019-01-28T13:49:50.967Z,99086.20
2019-01-28T13:52:19.753Z,99081.84
2019-01-28T13:54:48.163Z,99085.80
2019-01-28T13:57:16.418Z,99091.81
2019-01-28T13:59:45.606Z,99097.27
2019-01-28T14:02:14.087Z,99099.30
2019-01-28T14:04:41.141Z,99102.83
2019-01-28T14:07:09.614Z,99110.53
2019-01-28T14:09:40.452Z,99115.87
2019-01-28T14:12:07.914Z,99119.56
2019-01-28T14:14:35.987Z,99117.20
2019-01-28T14:17:03.228Z,99128.33
2019-01-28T14:19:30.995Z,99134.14
2019-01-28T14:21:58.820Z,99134.67
2019-01-28T14:24:27.244Z,99137.72
2019-01-28T14:26:54.765Z,99146.03
2019-01-28T14:29:21.815Z,99146.76
2019-01-28T14:31:49.062Z,99148.06
2019-01-28T14:34:16.119Z,99149.44
2019-01-28T14:36:43.190Z,99154.30
2019-01-28T14:39:13.812Z,99150.75
2019-01-28T14:41:40.145Z,99154.30
2019-01-28T14:44:07.310Z,99151.77
2019-01-28T14:46:35.792Z,99167.47
2019-01-28T14:49:03.756Z,99165.06
2019-01-28T14:51:31.518Z,99173.41
2019-01-28T14:54:00.071Z,99168.78
2019-01-28T14:56:29.233Z,99177.68
2019-01-28T14:58:58.226Z,99178.36
2019-01-28T15:01:25.751Z,99179.70
2019-01-28T15:03:53.660Z,99189.84
2019-01-28T15:06:20.845Z,99183.94
2019-01-28T15:08:48.099Z,99190.91
2019-01-28T15:11:15.138Z,99193.69
2019-01-28T15:13:42.237Z,99191.27
2019-01-28T15:16:09.401Z,99200.31
2019-01-28T15:18:36.566Z,99197.73
2019-01-28T15:21:03.622Z,99197.26
2019-01-28T15:23:31.755Z,99201.34
2019-01-28T15:25:58.962Z,99202.09
2019-01-28T15:28:26.342Z,99209.37
2019-01-28T15:30:54.017Z,99212.75
2019-01-28T15:33:21.556Z,99220.22
2019-01-28T15:35:50.040Z,99224.28
2019-01-28T15:38:18.011Z,99222.23
2019-01-28T15:40:45.210Z,99236.23
2019-01-28T15:43:12.375Z,99233.22
2019-01-28T15:45:42.021Z,99231.13
2019-01-28T15:48:13.347Z,99242.24
2019-01-28T15:50:40.394Z,99243.52
2019-01-28T15:53:08.289Z,99243.52
2019-01-28T15:55:39.041Z,99248.58
2019-01-28T15:58:07.090Z,99255.28
2019-01-28T16:00:37.308Z,99266.92
2019-01-28T16:03:05.472Z,99264.95
2019-01-28T16:05:32.863Z,99270.41
2019-01-28T16:08:01.078Z,99278.73
2019-01-28T16:10:28.125Z,99285.23
2019-01-28T16:12:55.645Z,99298.25
2019-01-28T16:15:29.316Z,99314.64
2019-01-28T16:17:56.979Z,99315.33
2019-01-28T16:20:25.047Z,99324.53
2019-01-28T16:22:52.399Z,99328.22
2019-01-28T16:25:20.170Z,99327.20
2019-01-28T16:27:47.930Z,99329.71
2019-01-28T16:30:17.842Z,99345.98
2019-01-28T16:32:45.223Z,99347.56
2019-01-28T16:35:13.163Z,99332.73
2019-01-28T16:37:40.525Z,99353.10
2019-01-28T16:40:09.805Z,99349.41
2019-01-28T16:42:36.966Z,99359.30
2019-01-28T16:45:04.840Z,99364.27
2019-01-28T16:47:35.370Z,99370.22
2019-01-28T16:50:04.269Z,99377.43
2019-01-28T16:52:31.919Z,99386.41
2019-01-28T16:54:59.805Z,99373.56
2019-01-28T16:57:27.142Z,99382.34
2019-01-28T16:59:54.596Z,99390.91
2019-01-28T17:02:21.767Z,99387.75
2019-01-28T17:04:48.939Z,99398.52
2019-01-28T17:07:17.689Z,99401.09
2019-01-28T17:09:45.450Z,99406.63
2019-01-28T17:12:12.904Z,99406.11
2019-01-28T17:14:42.818Z,99407.86
2019-01-28T17:17:10.480Z,99418.67
2019-01-28T17:19:37.561Z,99422.39
2019-01-28T17:22:06.446Z,99425.19
2019-01-28T17:24:34.594Z,99430.65
2019-01-28T17:27:01.683Z,99431.52
2019-01-28T17:29:28.716Z,99436.67
2019-01-28T17:31:56.345Z,99450.47
2019-01-28T17:34:23.726Z,99447.70
2019-01-28T17:36:52.896Z,99449.44
2019-01-28T17:39:19.924Z,99443.30
2019-01-28T17:41:47.610Z,99454.61
2019-01-28T17:44:14.644Z,99471.32
2019-01-28T17:46:42.417Z,99471.75
2019-01-28T17:49:09.485Z,99472.95
2019-01-28T17:51:37.433Z,99486.20
2019-01-28T17:54:04.993Z,99486.89
2019-01-28T17:56:32.691Z,99487.64
2019-01-28T17:58:59.733Z,99490.52
2019-01-28T18:01:26.772Z,99497.22
2019-01-28T18:03:53.944Z,99490.28
2019-01-28T18:06:20.976Z,99495.64
2019-01-28T18:08:48.013Z,99497.56
2019-01-28T18:11:15.178Z,99497.05
2019-01-28T18:13:42.806Z,99503.74
2019-01-28T18:16:10.286Z,99506.23
2019-01-28T18:18:38.254Z,99514.24
2019-01-28T18:21:05.894Z,99518.53
2019-01-28T18:24:01.823Z,99528.16
2019-01-28T18:26:29.683Z,99522.34
2019-01-28T18:28:58.367Z,99529.66
2019-01-28T18:31:25.447Z,99537.06
2019-01-28T18:33:52.469Z,99540.12
2019-01-28T18:36:19.818Z,99533.47
2019-01-28T18:38:46.877Z,99538.88
2019-01-28T18:41:14.256Z,99547.97
2019-01-28T18:43:41.809Z,99556.55
2019-01-28T18:46:09.184Z,99561.53
2019-01-28T18:48:36.383Z,99557.27
2019-01-28T18:51:03.411Z,99565.39
2019-01-28T18:53:30.507Z,99565.06
2019-01-28T18:55:57.642Z,99562.84
2019-01-28T18:58:25.030Z,99570.89
2019-01-28T19:00:52.747Z,99573.08
2019-01-28T19:03:20.823Z,99572.63
2019-01-28T19:05:55.630Z,99578.64
2019-01-28T19:08:39.654Z,99580.75
2019-01-28T19:11:32.186Z,99583.66
2019-01-28T19:14:05.490Z,99596.71
2019-01-28T19:17:10.185Z,99602.02
2019-01-28T19:19:55.474Z,99597.67
2019-01-28T19:22:26.347Z,99602.41
2019-01-28T19:24:53.497Z,99608.88
2019-01-28T19:27:20.543Z,99611.70
2019-01-28T19:29:47.604Z,99612.34
2019-01-28T19:32:14.638Z,99620.92
2019-01-28T19:34:41.898Z,99624.33
2019-01-28T19:37:10.033Z,99631.23
2019-01-28T19:39:37.089Z,99638.24
2019-01-28T19:42:04.894Z,99641.09
2019-01-28T19:44:32.257Z,99642.74
2019-01-28T19:46:59.716Z,99649.09
2019-01-28T19:49:27.093Z,99649.89
2019-01-28T19:51:55.201Z,99648.91
2019-01-28T19:54:22.532Z,99656.60
2019-01-28T19:56:51.181Z,99668.32
2019-01-28T19:59:18.215Z,99670.23
2019-01-28T20:01:45.252Z,99672.02
2019-01-28T20:04:12.385Z,99662.88
2019-01-28T20:06:39.424Z,99683.13
2019-01-28T20:09:07.630Z,99693.31
2019-01-28T20:11:36.691Z,99695.02
2019-01-28T20:14:04.939Z,99695.89
2019-01-28T20:16:32.268Z,99691.69
2019-01-28T20:18:59.652Z,99698.39
2019-01-28T20:21:27.075Z,99696.48
2019-01-28T20:23:54.878Z,99694.97
2019-01-28T20:26:22.106Z,99704.13
2019-01-28T20:28:49.961Z,99708.08
2019-01-28T20:31:20.091Z,99714.56
2019-01-28T20:33:47.330Z,99714.84
2019-01-28T20:36:15.447Z,99714.28
2019-01-28T20:38:42.490Z,99721.45
2019-01-28T20:41:09.830Z,99726.44
2019-01-28T20:43:36.903Z,99736.23
2019-01-28T20:46:04.319Z,99739.69
2019-01-28T20:48:32.178Z,99743.06
2019-01-28T20:50:59.264Z,99746.03
2019-01-28T20:53:26.753Z,99746.03
2019-01-28T20:55:53.789Z,99755.58
2019-01-28T20:58:22.027Z,99771.00
2019-01-28T21:00:50.181Z,99768.02
2019-01-28T21:03:17.528Z,99772.48
2019-01-28T21:05:44.570Z,99764.93
2019-01-28T21:08:12.562Z,99773.48
2019-01-28T21:10:40.407Z,99766.04
2019-01-28T21:13:07.918Z,99772.73
2019-01-28T21:15:35.352Z,99770.10
2019-01-28T21:18:03.191Z,99775.88
2019-01-28T21:20:30.954Z,99775.20
2019-01-28T21:22:58.006Z,99776.80
2019-01-28T21:25:26.587Z,99775.63
2019-01-28T21:27:53.945Z,99784.97
2019-01-28T21:30:27.724Z,99785.63
2019-01-28T21:32:55.800Z,99789.09
2019-01-28T21:35:44.008Z,99791.94
2019-01-28T21:38:14.482Z,99790.14
2019-01-28T21:40:41.563Z,99795.67
2019-01-28T21:43:08.610Z,99798.04
2019-01-28T21:45:36.445Z,99796.88
2019-01-28T21:48:04.123Z,99799.86
2019-01-28T21:50:31.662Z,99802.23
2019-01-28T21:52:59.121Z,99805.66
2019-01-28T21:55:27.061Z,99809.25
2019-01-28T21:57:54.960Z,99809.06
2019-01-28T22:00:23.243Z,99808.69
2019-01-28T22:02:50.509Z,99807.23
2019-01-28T22:05:17.553Z,99798.81
2019-01-28T22:07:44.606Z,99813.48
2019-01-28T22:10:13.270Z,99803.56
2019-01-28T22:12:40.319Z,99798.94
2019-01-28T22:15:10.618Z,99813.48
2019-01-28T22:17:37.690Z,99815.50
2019-01-28T22:20:06.475Z,99813.85
2019-01-28T22:22:34.552Z,99818.55
2019-01-28T22:25:02.208Z,99822.22
2019-01-28T22:27:29.976Z,99826.13
2019-01-28T22:29:57.366Z,99823.81
2019-01-28T22:32:24.733Z,99828.25
2019-01-28T22:34:52.450Z,99827.98
2019-01-28T22:37:20.312Z,99824.57
2019-01-28T22:39:47.367Z,99832.58
2019-01-28T22:42:21.192Z,99834.34
2019-01-28T22:44:44.611Z,99833.67
2019-01-28T22:47:11.674Z,99838.73
2019-01-28T22:49:39.263Z,99838.19
2019-01-28T22:52:07.912Z,99844.23
2019-01-28T22:54:35.572Z,99852.43
2019-01-28T22:57:02.867Z,99860.27
2019-01-28T22:59:30.290Z,99860.54
2019-01-28T23:01:57.339Z,99858.45
2019-01-28T23:04:24.442Z,99864.73
2019-01-28T23:06:51.611Z,99860.20
2019-01-28T23:09:18.997Z,99866.69
2019-01-28T23:11:47.001Z,99862.45
2019-01-28T23:14:15.145Z,99869.22
2019-01-28T23:16:43.016Z,99873.27
2019-01-28T23:19:10.293Z,99878.58
2019-01-28T23:21:37.339Z,99883.23
2019-01-28T23:24:04.385Z,99891.03
2019-01-28T23:26:31.462Z,99894.81
2019-01-28T23:28:58.498Z,99897.48
2019-01-28T23:31:25.592Z,99899.38
2019-01-28T23:33:52.643Z,99905.53
2019-01-28T23:36:20.030Z,99906.53
2019-01-28T23:38:48.303Z,99910.47
2019-01-28T23:41:15.521Z,99915.16
2019-01-28T23:43:42.869Z,99919.34
2019-01-28T23:46:10.837Z,99925.69
2019-01-28T23:48:38.293Z,99918.24
2019-01-28T23:51:06.618Z,99915.52
2019-01-28T23:53:34.704Z,99920.25
2019-01-28T23:56:01.752Z,99915.98
2019-01-28T23:58:29.884Z,99920.13
